sensor_id;sensor_type;location;lat;lon;timestamp;P1;durP1;ratioP1;P2;durP2;ratioP2
48034;SDS011;33812;46.480;6.834;2023-04-29T00:00:58;6.45;;;1.60;;
48034;SDS011;33812;46.480;6.834;2023-04-29T00:05:02;13.98;;;2.35;;
48034;SDS011;33812;46.480;6.834;2023-04-29T00:09:04;16.30;;;2.63;;
48034;SDS011;33812;46.480;6.834;2023-04-29T00:13:07;11.50;;;1.83;;
48034;SDS011;33812;46.480;6.834;2023-04-29T00:17:09;7.80;;;1.60;;
48034;SDS011;33812;46.480;6.834;2023-04-29T00:21:14;8.68;;;1.73;;
48034;SDS011;33812;46.480;6.834;2023-04-29T00:29:22;2.72;;;0.85;;
48034;SDS011;33812;46.480;6.834;2023-04-29T00:33:30;9.95;;;1.83;;
48034;SDS011;33812;46.480;6.834;2023-04-29T00:37:41;12.13;;;2.08;;
48034;SDS011;33812;46.480;6.834;2023-04-29T00:41:45;9.95;;;1.25;;
48034;SDS011;33812;46.480;6.834;2023-04-29T00:45:55;3.80;;;0.95;;
48034;SDS011;33812;46.480;6.834;2023-04-29T00:54:10;5.13;;;1.15;;
48034;SDS011;33812;46.480;6.834;2023-04-29T00:58:13;2.28;;;0.57;;
48034;SDS011;33812;46.480;6.834;2023-04-29T01:02:16;7.15;;;1.27;;
48034;SDS011;33812;46.480;6.834;2023-04-29T01:10:38;2.20;;;0.65;;
48034;SDS011;33812;46.480;6.834;2023-04-29T01:14:46;13.15;;;2.30;;
48034;SDS011;33812;46.480;6.834;2023-04-29T01:18:57;10.80;;;1.00;;
48034;SDS011;33812;46.480;6.834;2023-04-29T01:23:06;9.50;;;1.50;;
48034;SDS011;33812;46.480;6.834;2023-04-29T01:27:13;5.80;;;1.17;;
48034;SDS011;33812;46.480;6.834;2023-04-29T01:31:37;13.10;;;1.95;;
48034;SDS011;33812;46.480;6.834;2023-04-29T01:35:54;7.38;;;1.33;;
48034;SDS011;33812;46.480;6.834;2023-04-29T01:40:08;11.35;;;2.05;;
48034;SDS011;33812;46.480;6.834;2023-04-29T01:44:21;11.38;;;1.77;;
48034;SDS011;33812;46.480;6.834;2023-04-29T01:56:59;12.93;;;2.20;;
48034;SDS011;33812;46.480;6.834;2023-04-29T02:01:03;8.65;;;2.10;;
48034;SDS011;33812;46.480;6.834;2023-04-29T02:05:06;16.35;;;2.60;;
48034;SDS011;33812;46.480;6.834;2023-04-29T02:09:10;17.55;;;3.00;;
48034;SDS011;33812;46.480;6.834;2023-04-29T02:13:12;11.32;;;1.85;;
48034;SDS011;33812;46.480;6.834;2023-04-29T02:21:22;12.23;;;2.03;;
48034;SDS011;33812;46.480;6.834;2023-04-29T02:25:24;7.23;;;1.23;;
48034;SDS011;33812;46.480;6.834;2023-04-29T02:29:26;8.25;;;1.40;;
48034;SDS011;33812;46.480;6.834;2023-04-29T02:33:46;12.30;;;1.77;;
48034;SDS011;33812;46.480;6.834;2023-04-29T02:37:57;9.20;;;1.63;;
48034;SDS011;33812;46.480;6.834;2023-04-29T02:42:01;11.65;;;1.95;;
48034;SDS011;33812;46.480;6.834;2023-04-29T02:46:04;9.60;;;1.27;;
48034;SDS011;33812;46.480;6.834;2023-04-29T02:50:07;12.93;;;2.15;;
48034;SDS011;33812;46.480;6.834;2023-04-29T02:54:10;6.53;;;1.13;;
48034;SDS011;33812;46.480;6.834;2023-04-29T02:58:23;4.97;;;1.20;;
48034;SDS011;33812;46.480;6.834;2023-04-29T03:02:40;6.07;;;1.15;;
48034;SDS011;33812;46.480;6.834;2023-04-29T03:06:44;6.32;;;1.45;;
48034;SDS011;33812;46.480;6.834;2023-04-29T03:10:51;5.47;;;1.08;;
48034;SDS011;33812;46.480;6.834;2023-04-29T03:14:53;7.80;;;1.27;;
48034;SDS011;33812;46.480;6.834;2023-04-29T03:18:56;3.08;;;0.90;;
48034;SDS011;33812;46.480;6.834;2023-04-29T03:23:01;12.43;;;1.88;;
48034;SDS011;33812;46.480;6.834;2023-04-29T03:27:04;10.63;;;1.67;;
48034;SDS011;33812;46.480;6.834;2023-04-29T03:31:08;7.72;;;1.23;;
48034;SDS011;33812;46.480;6.834;2023-04-29T03:43:18;11.55;;;2.00;;
48034;SDS011;33812;46.480;6.834;2023-04-29T03:47:22;6.15;;;1.25;;
48034;SDS011;33812;46.480;6.834;2023-04-29T03:51:31;5.97;;;0.98;;
48034;SDS011;33812;46.480;6.834;2023-04-29T03:55:37;2.17;;;0.60;;
48034;SDS011;33812;46.480;6.834;2023-04-29T03:59:41;9.95;;;1.92;;
48034;SDS011;33812;46.480;6.834;2023-04-29T04:03:42;10.38;;;1.60;;
48034;SDS011;33812;46.480;6.834;2023-04-29T04:11:56;7.53;;;1.33;;
48034;SDS011;33812;46.480;6.834;2023-04-29T04:15:59;7.40;;;1.30;;
48034;SDS011;33812;46.480;6.834;2023-04-29T04:20:01;5.85;;;1.10;;
48034;SDS011;33812;46.480;6.834;2023-04-29T04:24:03;11.25;;;1.67;;
48034;SDS011;33812;46.480;6.834;2023-04-29T04:28:11;8.30;;;1.42;;
48034;SDS011;33812;46.480;6.834;2023-04-29T04:32:13;4.63;;;0.82;;
48034;SDS011;33812;46.480;6.834;2023-04-29T04:36:16;1.90;;;0.38;;
48034;SDS011;33812;46.480;6.834;2023-04-29T04:40:18;3.88;;;0.73;;
48034;SDS011;33812;46.480;6.834;2023-04-29T04:44:21;6.65;;;1.55;;
48034;SDS011;33812;46.480;6.834;2023-04-29T04:48:23;4.13;;;0.98;;
48034;SDS011;33812;46.480;6.834;2023-04-29T04:52:26;5.20;;;0.95;;
48034;SDS011;33812;46.480;6.834;2023-04-29T04:56:29;11.45;;;1.95;;
48034;SDS011;33812;46.480;6.834;2023-04-29T05:00:33;23.38;;;3.78;;
48034;SDS011;33812;46.480;6.834;2023-04-29T05:04:35;3.90;;;0.87;;
48034;SDS011;33812;46.480;6.834;2023-04-29T05:08:37;9.20;;;1.63;;
48034;SDS011;33812;46.480;6.834;2023-04-29T05:12:39;9.15;;;1.63;;
48034;SDS011;33812;46.480;6.834;2023-04-29T05:16:42;3.20;;;0.85;;
48034;SDS011;33812;46.480;6.834;2023-04-29T05:20:45;3.58;;;0.60;;
48034;SDS011;33812;46.480;6.834;2023-04-29T05:24:47;8.40;;;1.20;;
48034;SDS011;33812;46.480;6.834;2023-04-29T05:28:50;1.58;;;0.52;;
48034;SDS011;33812;46.480;6.834;2023-04-29T05:32:53;4.15;;;0.80;;
48034;SDS011;33812;46.480;6.834;2023-04-29T05:36:56;5.75;;;1.02;;
48034;SDS011;33812;46.480;6.834;2023-04-29T05:40:58;16.02;;;1.15;;
48034;SDS011;33812;46.480;6.834;2023-04-29T05:45:00;8.05;;;1.38;;
48034;SDS011;33812;46.480;6.834;2023-04-29T05:49:05;15.07;;;2.35;;
48034;SDS011;33812;46.480;6.834;2023-04-29T05:57:13;3.90;;;0.68;;
48034;SDS011;33812;46.480;6.834;2023-04-29T06:01:16;23.05;;;3.50;;
48034;SDS011;33812;46.480;6.834;2023-04-29T06:05:21;23.30;;;3.80;;
48034;SDS011;33812;46.480;6.834;2023-04-29T06:09:24;11.35;;;1.88;;
48034;SDS011;33812;46.480;6.834;2023-04-29T06:13:27;12.70;;;2.35;;
48034;SDS011;33812;46.480;6.834;2023-04-29T06:17:29;11.43;;;2.28;;
48034;SDS011;33812;46.480;6.834;2023-04-29T06:21:33;8.60;;;1.17;;
48034;SDS011;33812;46.480;6.834;2023-04-29T06:25:36;8.93;;;1.63;;
48034;SDS011;33812;46.480;6.834;2023-04-29T06:29:39;8.63;;;1.77;;
48034;SDS011;33812;46.480;6.834;2023-04-29T06:33:41;5.90;;;1.42;;
48034;SDS011;33812;46.480;6.834;2023-04-29T06:37:44;18.80;;;2.13;;
48034;SDS011;33812;46.480;6.834;2023-04-29T06:41:46;12.15;;;2.33;;
48034;SDS011;33812;46.480;6.834;2023-04-29T06:45:48;10.73;;;1.95;;
48034;SDS011;33812;46.480;6.834;2023-04-29T06:49:50;3.00;;;1.00;;
48034;SDS011;33812;46.480;6.834;2023-04-29T06:53:53;9.43;;;1.33;;
48034;SDS011;33812;46.480;6.834;2023-04-29T06:57:55;20.10;;;2.83;;
48034;SDS011;33812;46.480;6.834;2023-04-29T07:01:57;8.55;;;1.27;;
48034;SDS011;33812;46.480;6.834;2023-04-29T07:05:58;18.05;;;2.60;;
48034;SDS011;33812;46.480;6.834;2023-04-29T07:10:01;8.30;;;1.42;;
48034;SDS011;33812;46.480;6.834;2023-04-29T07:14:03;11.00;;;1.38;;
48034;SDS011;33812;46.480;6.834;2023-04-29T07:18:06;15.23;;;2.00;;
48034;SDS011;33812;46.480;6.834;2023-04-29T07:22:08;3.42;;;0.98;;
48034;SDS011;33812;46.480;6.834;2023-04-29T07:26:12;27.27;;;3.08;;
48034;SDS011;33812;46.480;6.834;2023-04-29T07:30:15;6.75;;;1.30;;
48034;SDS011;33812;46.480;6.834;2023-04-29T07:34:17;10.25;;;1.33;;
48034;SDS011;33812;46.480;6.834;2023-04-29T07:38:20;14.30;;;2.13;;
48034;SDS011;33812;46.480;6.834;2023-04-29T07:42:23;2.50;;;0.80;;
48034;SDS011;33812;46.480;6.834;2023-04-29T07:46:25;4.95;;;0.75;;
48034;SDS011;33812;46.480;6.834;2023-04-29T07:50:27;9.52;;;1.33;;
48034;SDS011;33812;46.480;6.834;2023-04-29T08:02:42;11.48;;;1.60;;
48034;SDS011;33812;46.480;6.834;2023-04-29T08:11:15;7.57;;;1.38;;
48034;SDS011;33812;46.480;6.834;2023-04-29T08:19:47;6.30;;;1.40;;
48034;SDS011;33812;46.480;6.834;2023-04-29T08:24:02;10.57;;;1.35;;
48034;SDS011;33812;46.480;6.834;2023-04-29T08:28:12;19.38;;;2.20;;
48034;SDS011;33812;46.480;6.834;2023-04-29T08:32:15;4.05;;;0.65;;
48034;SDS011;33812;46.480;6.834;2023-04-29T08:36:17;7.05;;;1.38;;
48034;SDS011;33812;46.480;6.834;2023-04-29T08:44:24;8.73;;;1.20;;
48034;SDS011;33812;46.480;6.834;2023-04-29T08:48:29;19.88;;;2.08;;
48034;SDS011;33812;46.480;6.834;2023-04-29T08:52:42;8.93;;;1.15;;
48034;SDS011;33812;46.480;6.834;2023-04-29T08:56:45;12.07;;;1.13;;
48034;SDS011;33812;46.480;6.834;2023-04-29T09:00:47;14.93;;;1.92;;
48034;SDS011;33812;46.480;6.834;2023-04-29T09:04:54;13.75;;;2.33;;
48034;SDS011;33812;46.480;6.834;2023-04-29T09:09:02;9.80;;;0.50;;
48034;SDS011;33812;46.480;6.834;2023-04-29T09:13:06;2.65;;;1.20;;
48034;SDS011;33812;46.480;6.834;2023-04-29T09:17:09;7.68;;;1.05;;
48034;SDS011;33812;46.480;6.834;2023-04-29T09:21:16;3.45;;;0.60;;
48034;SDS011;33812;46.480;6.834;2023-04-29T09:25:19;3.72;;;0.50;;
48034;SDS011;33812;46.480;6.834;2023-04-29T09:29:21;7.20;;;1.05;;
48034;SDS011;33812;46.480;6.834;2023-04-29T09:33:23;2.28;;;0.70;;
48034;SDS011;33812;46.480;6.834;2023-04-29T09:37:29;4.07;;;0.77;;
48034;SDS011;33812;46.480;6.834;2023-04-29T09:41:40;10.40;;;1.95;;
48034;SDS011;33812;46.480;6.834;2023-04-29T09:50:11;4.13;;;0.85;;
48034;SDS011;33812;46.480;6.834;2023-04-29T09:54:24;4.50;;;0.90;;
48034;SDS011;33812;46.480;6.834;2023-04-29T09:58:29;10.20;;;2.95;;
48034;SDS011;33812;46.480;6.834;2023-04-29T10:02:36;2.58;;;0.70;;
48034;SDS011;33812;46.480;6.834;2023-04-29T10:06:47;10.13;;;1.63;;
48034;SDS011;33812;46.480;6.834;2023-04-29T10:10:53;1.70;;;0.45;;
48034;SDS011;33812;46.480;6.834;2023-04-29T10:15:02;1.85;;;0.63;;
48034;SDS011;33812;46.480;6.834;2023-04-29T10:19:10;6.35;;;1.45;;
48034;SDS011;33812;46.480;6.834;2023-04-29T10:23:15;1.65;;;0.50;;
48034;SDS011;33812;46.480;6.834;2023-04-29T10:27:21;3.92;;;0.80;;
48034;SDS011;33812;46.480;6.834;2023-04-29T10:31:25;9.52;;;1.48;;
48034;SDS011;33812;46.480;6.834;2023-04-29T10:35:29;1.58;;;0.43;;
48034;SDS011;33812;46.480;6.834;2023-04-29T10:39:33;13.93;;;2.65;;
48034;SDS011;33812;46.480;6.834;2023-04-29T10:43:41;5.35;;;1.10;;
48034;SDS011;33812;46.480;6.834;2023-04-29T10:47:52;16.83;;;2.58;;
48034;SDS011;33812;46.480;6.834;2023-04-29T10:52:09;5.50;;;1.20;;
48034;SDS011;33812;46.480;6.834;2023-04-29T10:56:17;8.15;;;1.38;;
48034;SDS011;33812;46.480;6.834;2023-04-29T11:00:23;6.10;;;0.57;;
48034;SDS011;33812;46.480;6.834;2023-04-29T11:04:29;3.72;;;0.70;;
48034;SDS011;33812;46.480;6.834;2023-04-29T11:08:32;3.28;;;0.68;;
48034;SDS011;33812;46.480;6.834;2023-04-29T11:12:39;5.80;;;1.10;;
48034;SDS011;33812;46.480;6.834;2023-04-29T11:16:48;5.45;;;1.08;;
48034;SDS011;33812;46.480;6.834;2023-04-29T11:25:13;3.00;;;0.65;;
48034;SDS011;33812;46.480;6.834;2023-04-29T11:29:15;2.35;;;0.50;;
48034;SDS011;33812;46.480;6.834;2023-04-29T11:33:21;5.47;;;1.08;;
48034;SDS011;33812;46.480;6.834;2023-04-29T11:37:24;10.23;;;1.77;;
48034;SDS011;33812;46.480;6.834;2023-04-29T11:41:26;4.47;;;0.85;;
48034;SDS011;33812;46.480;6.834;2023-04-29T11:45:28;6.70;;;0.88;;
48034;SDS011;33812;46.480;6.834;2023-04-29T11:49:31;3.67;;;0.90;;
48034;SDS011;33812;46.480;6.834;2023-04-29T11:53:34;9.93;;;0.60;;
48034;SDS011;33812;46.480;6.834;2023-04-29T11:57:36;4.13;;;0.80;;
48034;SDS011;33812;46.480;6.834;2023-04-29T12:01:39;6.28;;;1.05;;
48034;SDS011;33812;46.480;6.834;2023-04-29T12:05:46;6.05;;;0.77;;
48034;SDS011;33812;46.480;6.834;2023-04-29T12:09:48;2.70;;;0.47;;
48034;SDS011;33812;46.480;6.834;2023-04-29T12:13:50;6.50;;;0.93;;
48034;SDS011;33812;46.480;6.834;2023-04-29T12:17:53;12.77;;;1.58;;
48034;SDS011;33812;46.480;6.834;2023-04-29T12:21:58;15.10;;;1.85;;
48034;SDS011;33812;46.480;6.834;2023-04-29T12:26:00;8.48;;;1.33;;
48034;SDS011;33812;46.480;6.834;2023-04-29T12:30:05;5.82;;;1.05;;
48034;SDS011;33812;46.480;6.834;2023-04-29T12:34:08;6.07;;;0.98;;
48034;SDS011;33812;46.480;6.834;2023-04-29T12:38:11;6.03;;;0.93;;
48034;SDS011;33812;46.480;6.834;2023-04-29T12:42:17;4.07;;;0.77;;
48034;SDS011;33812;46.480;6.834;2023-04-29T12:46:19;4.22;;;0.85;;
48034;SDS011;33812;46.480;6.834;2023-04-29T12:50:27;9.68;;;1.58;;
48034;SDS011;33812;46.480;6.834;2023-04-29T12:54:31;7.45;;;1.20;;
48034;SDS011;33812;46.480;6.834;2023-04-29T12:58:35;5.55;;;0.55;;
48034;SDS011;33812;46.480;6.834;2023-04-29T13:02:38;10.88;;;1.58;;
48034;SDS011;33812;46.480;6.834;2023-04-29T13:06:40;2.65;;;0.40;;
48034;SDS011;33812;46.480;6.834;2023-04-29T13:10:44;3.85;;;0.75;;
48034;SDS011;33812;46.480;6.834;2023-04-29T13:14:45;2.00;;;0.45;;
48034;SDS011;33812;46.480;6.834;2023-04-29T13:18:47;6.03;;;0.73;;
48034;SDS011;33812;46.480;6.834;2023-04-29T13:22:49;4.22;;;0.65;;
48034;SDS011;33812;46.480;6.834;2023-04-29T13:26:53;7.03;;;0.88;;
48034;SDS011;33812;46.480;6.834;2023-04-29T13:30:55;6.63;;;1.37;;
48034;SDS011;33812;46.480;6.834;2023-04-29T13:34:57;1.75;;;0.50;;
48034;SDS011;33812;46.480;6.834;2023-04-29T13:39:00;4.70;;;0.88;;
48034;SDS011;33812;46.480;6.834;2023-04-29T13:43:03;5.45;;;1.40;;
48034;SDS011;33812;46.480;6.834;2023-04-29T13:47:05;3.70;;;0.93;;
48034;SDS011;33812;46.480;6.834;2023-04-29T13:51:07;5.97;;;1.17;;
48034;SDS011;33812;46.480;6.834;2023-04-29T13:55:10;1.65;;;0.50;;
48034;SDS011;33812;46.480;6.834;2023-04-29T13:59:13;5.68;;;0.95;;
48034;SDS011;33812;46.480;6.834;2023-04-29T14:03:15;1.95;;;0.45;;
48034;SDS011;33812;46.480;6.834;2023-04-29T14:07:17;10.25;;;1.85;;
48034;SDS011;33812;46.480;6.834;2023-04-29T14:11:20;2.17;;;0.45;;
48034;SDS011;33812;46.480;6.834;2023-04-29T14:15:24;6.57;;;0.65;;
48034;SDS011;33812;46.480;6.834;2023-04-29T14:19:27;3.50;;;0.70;;
48034;SDS011;33812;46.480;6.834;2023-04-29T14:23:29;6.80;;;1.00;;
48034;SDS011;33812;46.480;6.834;2023-04-29T14:27:31;9.23;;;1.45;;
48034;SDS011;33812;46.480;6.834;2023-04-29T14:31:36;2.85;;;0.63;;
48034;SDS011;33812;46.480;6.834;2023-04-29T14:35:38;4.95;;;0.57;;
48034;SDS011;33812;46.480;6.834;2023-04-29T14:39:41;0.20;;;0.20;;
48034;SDS011;33812;46.480;6.834;2023-04-29T14:43:43;3.35;;;0.70;;
48034;SDS011;33812;46.480;6.834;2023-04-29T14:47:47;3.75;;;0.77;;
48034;SDS011;33812;46.480;6.834;2023-04-29T14:51:49;2.80;;;0.53;;
48034;SDS011;33812;46.480;6.834;2023-04-29T14:55:50;2.35;;;0.65;;
48034;SDS011;33812;46.480;6.834;2023-04-29T14:59:53;8.02;;;1.40;;
48034;SDS011;33812;46.480;6.834;2023-04-29T15:03:57;5.53;;;1.08;;
48034;SDS011;33812;46.480;6.834;2023-04-29T15:12:03;5.25;;;0.98;;
48034;SDS011;33812;46.480;6.834;2023-04-29T15:16:05;6.93;;;1.25;;
48034;SDS011;33812;46.480;6.834;2023-04-29T15:20:11;5.38;;;1.02;;
48034;SDS011;33812;46.480;6.834;2023-04-29T15:24:14;4.05;;;0.77;;
48034;SDS011;33812;46.480;6.834;2023-04-29T15:28:20;8.63;;;1.42;;
48034;SDS011;33812;46.480;6.834;2023-04-29T15:32:23;0.47;;;0.25;;
48034;SDS011;33812;46.480;6.834;2023-04-29T15:36:33;7.82;;;1.13;;
48034;SDS011;33812;46.480;6.834;2023-04-29T15:40:35;0.80;;;0.30;;
48034;SDS011;33812;46.480;6.834;2023-04-29T15:48:49;7.88;;;0.73;;
48034;SDS011;33812;46.480;6.834;2023-04-29T15:52:52;12.60;;;2.00;;
48034;SDS011;33812;46.480;6.834;2023-04-29T15:56:56;8.65;;;0.98;;
48034;SDS011;33812;46.480;6.834;2023-04-29T16:00:57;5.05;;;1.25;;
48034;SDS011;33812;46.480;6.834;2023-04-29T16:04:59;10.43;;;0.88;;
48034;SDS011;33812;46.480;6.834;2023-04-29T16:09:02;16.10;;;2.60;;
48034;SDS011;33812;46.480;6.834;2023-04-29T16:13:05;3.07;;;0.90;;
48034;SDS011;33812;46.480;6.834;2023-04-29T16:17:08;6.97;;;1.23;;
48034;SDS011;33812;46.480;6.834;2023-04-29T16:21:09;3.67;;;0.80;;
48034;SDS011;33812;46.480;6.834;2023-04-29T16:25:14;4.55;;;1.05;;
48034;SDS011;33812;46.480;6.834;2023-04-29T16:29:18;5.22;;;1.25;;
48034;SDS011;33812;46.480;6.834;2023-04-29T16:33:22;4.90;;;1.10;;
48034;SDS011;33812;46.480;6.834;2023-04-29T16:37:26;5.55;;;1.02;;
48034;SDS011;33812;46.480;6.834;2023-04-29T16:41:30;3.53;;;1.05;;
48034;SDS011;33812;46.480;6.834;2023-04-29T16:45:34;6.10;;;1.27;;
48034;SDS011;33812;46.480;6.834;2023-04-29T16:49:44;19.80;;;2.85;;
48034;SDS011;33812;46.480;6.834;2023-04-29T16:53:57;3.55;;;1.58;;
48034;SDS011;33812;46.480;6.834;2023-04-29T16:58:00;10.05;;;2.20;;
48034;SDS011;33812;46.480;6.834;2023-04-29T17:02:03;123.70;;;61.43;;
48034;SDS011;33812;46.480;6.834;2023-04-29T17:06:05;149.30;;;75.50;;
48034;SDS011;33812;46.480;6.834;2023-04-29T17:10:07;127.55;;;59.45;;
48034;SDS011;33812;46.480;6.834;2023-04-29T17:14:12;101.47;;;49.55;;
48034;SDS011;33812;46.480;6.834;2023-04-29T17:18:14;177.95;;;86.45;;
48034;SDS011;33812;46.480;6.834;2023-04-29T17:22:18;149.48;;;79.43;;
48034;SDS011;33812;46.480;6.834;2023-04-29T17:26:20;139.55;;;73.18;;
48034;SDS011;33812;46.480;6.834;2023-04-29T17:30:23;122.47;;;65.93;;
48034;SDS011;33812;46.480;6.834;2023-04-29T17:34:26;44.25;;;19.75;;
48034;SDS011;33812;46.480;6.834;2023-04-29T17:38:30;49.28;;;18.48;;
48034;SDS011;33812;46.480;6.834;2023-04-29T17:42:32;134.75;;;39.75;;
48034;SDS011;33812;46.480;6.834;2023-04-29T17:46:36;139.57;;;38.03;;
48034;SDS011;33812;46.480;6.834;2023-04-29T17:50:39;120.47;;;34.58;;
48034;SDS011;33812;46.480;6.834;2023-04-29T17:54:41;92.50;;;26.40;;
48034;SDS011;33812;46.480;6.834;2023-04-29T17:58:42;88.93;;;28.40;;
48034;SDS011;33812;46.480;6.834;2023-04-29T18:02:47;81.32;;;38.00;;
48034;SDS011;33812;46.480;6.834;2023-04-29T18:06:49;87.27;;;47.13;;
48034;SDS011;33812;46.480;6.834;2023-04-29T18:10:51;102.35;;;54.22;;
48034;SDS011;33812;46.480;6.834;2023-04-29T18:14:53;113.13;;;67.78;;
48034;SDS011;33812;46.480;6.834;2023-04-29T18:18:56;159.48;;;113.90;;
48034;SDS011;33812;46.480;6.834;2023-04-29T18:22:58;135.40;;;102.43;;
48034;SDS011;33812;46.480;6.834;2023-04-29T18:27:00;105.13;;;71.93;;
48034;SDS011;33812;46.480;6.834;2023-04-29T18:31:02;96.57;;;65.03;;
48034;SDS011;33812;46.480;6.834;2023-04-29T18:35:06;39.53;;;25.58;;
48034;SDS011;33812;46.480;6.834;2023-04-29T18:39:08;19.45;;;7.63;;
48034;SDS011;33812;46.480;6.834;2023-04-29T18:43:10;15.15;;;4.63;;
48034;SDS011;33812;46.480;6.834;2023-04-29T18:47:16;16.73;;;5.53;;
48034;SDS011;33812;46.480;6.834;2023-04-29T18:51:19;16.08;;;5.30;;
48034;SDS011;33812;46.480;6.834;2023-04-29T18:55:21;11.57;;;5.28;;
48034;SDS011;33812;46.480;6.834;2023-04-29T18:59:24;26.98;;;8.05;;
48034;SDS011;33812;46.480;6.834;2023-04-29T19:03:26;21.88;;;6.13;;
48034;SDS011;33812;46.480;6.834;2023-04-29T19:07:29;10.25;;;4.78;;
48034;SDS011;33812;46.480;6.834;2023-04-29T19:11:31;12.25;;;4.28;;
48034;SDS011;33812;46.480;6.834;2023-04-29T19:15:33;22.02;;;3.17;;
48034;SDS011;33812;46.480;6.834;2023-04-29T19:19:36;4.38;;;1.20;;
48034;SDS011;33812;46.480;6.834;2023-04-29T19:23:39;12.02;;;1.60;;
48034;SDS011;33812;46.480;6.834;2023-04-29T19:27:41;5.97;;;1.45;;
48034;SDS011;33812;46.480;6.834;2023-04-29T19:31:44;10.63;;;1.95;;
48034;SDS011;33812;46.480;6.834;2023-04-29T19:35:46;19.27;;;3.40;;
48034;SDS011;33812;46.480;6.834;2023-04-29T19:39:49;12.07;;;1.65;;
48034;SDS011;33812;46.480;6.834;2023-04-29T19:43:53;11.50;;;1.60;;
48034;SDS011;33812;46.480;6.834;2023-04-29T19:47:54;6.22;;;1.45;;
48034;SDS011;33812;46.480;6.834;2023-04-29T19:51:58;9.80;;;2.28;;
48034;SDS011;33812;46.480;6.834;2023-04-29T19:56:02;18.70;;;3.45;;
48034;SDS011;33812;46.480;6.834;2023-04-29T20:00:04;10.60;;;2.28;;
48034;SDS011;33812;46.480;6.834;2023-04-29T20:04:08;13.47;;;2.50;;
48034;SDS011;33812;46.480;6.834;2023-04-29T20:08:11;16.83;;;3.03;;
48034;SDS011;33812;46.480;6.834;2023-04-29T20:12:14;18.10;;;3.25;;
48034;SDS011;33812;46.480;6.834;2023-04-29T20:16:16;16.63;;;2.85;;
48034;SDS011;33812;46.480;6.834;2023-04-29T20:20:17;12.48;;;2.30;;
48034;SDS011;33812;46.480;6.834;2023-04-29T20:24:19;17.35;;;2.85;;
48034;SDS011;33812;46.480;6.834;2023-04-29T20:28:22;14.52;;;1.92;;
48034;SDS011;33812;46.480;6.834;2023-04-29T20:32:24;12.77;;;2.35;;
48034;SDS011;33812;46.480;6.834;2023-04-29T20:36:26;8.70;;;1.55;;
48034;SDS011;33812;46.480;6.834;2023-04-29T20:40:29;11.50;;;2.20;;
48034;SDS011;33812;46.480;6.834;2023-04-29T20:44:34;10.82;;;2.50;;
48034;SDS011;33812;46.480;6.834;2023-04-29T20:48:37;14.57;;;2.38;;
48034;SDS011;33812;46.480;6.834;2023-04-29T20:52:39;6.47;;;1.42;;
48034;SDS011;33812;46.480;6.834;2023-04-29T20:56:40;10.80;;;2.00;;
48034;SDS011;33812;46.480;6.834;2023-04-29T21:00:43;3.45;;;1.13;;
48034;SDS011;33812;46.480;6.834;2023-04-29T21:04:45;5.35;;;1.23;;
48034;SDS011;33812;46.480;6.834;2023-04-29T21:08:48;14.27;;;3.08;;
48034;SDS011;33812;46.480;6.834;2023-04-29T21:12:52;4.22;;;1.10;;
48034;SDS011;33812;46.480;6.834;2023-04-29T21:16:55;6.72;;;1.42;;
48034;SDS011;33812;46.480;6.834;2023-04-29T21:20:58;8.40;;;1.90;;
48034;SDS011;33812;46.480;6.834;2023-04-29T21:24:59;7.15;;;1.63;;
48034;SDS011;33812;46.480;6.834;2023-04-29T21:29:02;11.70;;;2.05;;
48034;SDS011;33812;46.480;6.834;2023-04-29T21:33:06;9.75;;;1.70;;
48034;SDS011;33812;46.480;6.834;2023-04-29T21:37:18;8.60;;;2.00;;
48034;SDS011;33812;46.480;6.834;2023-04-29T21:41:27;8.25;;;1.80;;
48034;SDS011;33812;46.480;6.834;2023-04-29T21:45:30;11.38;;;2.15;;
48034;SDS011;33812;46.480;6.834;2023-04-29T21:49:40;9.77;;;2.08;;
48034;SDS011;33812;46.480;6.834;2023-04-29T21:53:41;14.43;;;2.03;;
48034;SDS011;33812;46.480;6.834;2023-04-29T21:57:43;6.82;;;1.67;;
48034;SDS011;33812;46.480;6.834;2023-04-29T22:01:45;4.97;;;1.23;;
48034;SDS011;33812;46.480;6.834;2023-04-29T22:06:06;13.07;;;2.45;;
48034;SDS011;33812;46.480;6.834;2023-04-29T22:10:08;8.65;;;1.63;;
48034;SDS011;33812;46.480;6.834;2023-04-29T22:14:09;7.90;;;1.42;;
48034;SDS011;33812;46.480;6.834;2023-04-29T22:18:11;10.57;;;2.42;;
48034;SDS011;33812;46.480;6.834;2023-04-29T22:22:16;7.57;;;1.88;;
48034;SDS011;33812;46.480;6.834;2023-04-29T22:26:25;12.90;;;2.00;;
48034;SDS011;33812;46.480;6.834;2023-04-29T22:30:28;8.95;;;1.80;;
48034;SDS011;33812;46.480;6.834;2023-04-29T22:34:30;6.03;;;1.45;;
48034;SDS011;33812;46.480;6.834;2023-04-29T22:38:33;8.90;;;1.63;;
48034;SDS011;33812;46.480;6.834;2023-04-29T22:42:36;14.95;;;2.75;;
48034;SDS011;33812;46.480;6.834;2023-04-29T22:46:38;10.00;;;1.92;;
48034;SDS011;33812;46.480;6.834;2023-04-29T22:50:40;11.68;;;2.00;;
48034;SDS011;33812;46.480;6.834;2023-04-29T22:54:50;6.93;;;1.58;;
48034;SDS011;33812;46.480;6.834;2023-04-29T22:58:52;9.82;;;2.15;;
48034;SDS011;33812;46.480;6.834;2023-04-29T23:02:54;9.60;;;1.95;;
48034;SDS011;33812;46.480;6.834;2023-04-29T23:06:56;9.00;;;1.58;;
48034;SDS011;33812;46.480;6.834;2023-04-29T23:10:59;10.70;;;2.28;;
48034;SDS011;33812;46.480;6.834;2023-04-29T23:15:01;5.65;;;1.40;;
48034;SDS011;33812;46.480;6.834;2023-04-29T23:19:04;9.80;;;2.03;;
48034;SDS011;33812;46.480;6.834;2023-04-29T23:23:06;14.85;;;2.38;;
48034;SDS011;33812;46.480;6.834;2023-04-29T23:27:09;9.77;;;1.80;;
48034;SDS011;33812;46.480;6.834;2023-04-29T23:31:11;7.75;;;1.73;;
48034;SDS011;33812;46.480;6.834;2023-04-29T23:35:14;10.07;;;1.60;;
48034;SDS011;33812;46.480;6.834;2023-04-29T23:39:15;16.10;;;3.03;;
48034;SDS011;33812;46.480;6.834;2023-04-29T23:43:19;7.00;;;1.55;;
48034;SDS011;33812;46.480;6.834;2023-04-29T23:47:21;7.68;;;1.75;;
48034;SDS011;33812;46.480;6.834;2023-04-29T23:51:22;11.52;;;2.05;;
48034;SDS011;33812;46.480;6.834;2023-04-29T23:55:27;8.88;;;1.85;;
48034;SDS011;33812;46.480;6.834;2023-04-29T23:59:30;6.63;;;1.65;;
